createdAt,value
2022-12-23T00:00:12.410Z,6.07
2022-12-23T00:05:06.344Z,7.23
2022-12-23T00:09:58.168Z,6.17
2022-12-23T00:15:07.901Z,6.23
2022-12-23T00:19:59.500Z,4.53
2022-12-23T00:24:51.062Z,7.47
2022-12-23T00:29:42.584Z,6.03
2022-12-23T00:34:34.131Z,4.27
2022-12-23T00:39:44.365Z,5.70
2022-12-23T00:44:35.887Z,4.90
2022-12-23T00:49:42.410Z,5.80
2022-12-23T00:54:34.017Z,3.77
2022-12-23T00:59:27.010Z,3.30
2022-12-23T01:04:38.304Z,2.80
2022-12-23T01:09:30.213Z,2.37
2022-12-23T01:14:22.384Z,2.43
2022-12-23T01:19:14.033Z,2.40
2022-12-23T01:24:08.086Z,2.47
2022-12-23T01:29:00.056Z,1.53
2022-12-23T01:33:52.481Z,1.00
2022-12-23T01:38:44.558Z,1.70
2022-12-23T01:43:50.895Z,1.93
2022-12-23T01:48:51.137Z,2.93
2022-12-23T01:53:50.361Z,2.10
2022-12-23T01:58:55.111Z,2.80
2022-12-23T02:03:49.440Z,2.20
2022-12-23T02:08:59.762Z,1.20
2022-12-23T02:14:28.180Z,2.77
2022-12-23T02:19:47.888Z,2.07
2022-12-23T02:25:07.368Z,4.50
2022-12-23T02:30:26.981Z,2.10
2022-12-23T02:35:18.575Z,1.70
2022-12-23T02:40:10.998Z,3.90
2022-12-23T02:45:34.972Z,3.40
2022-12-23T02:50:31.770Z,2.70
2022-12-23T02:55:28.943Z,3.93
2022-12-23T03:00:21.440Z,2.30
2022-12-23T03:05:40.571Z,5.37
2022-12-23T03:11:10.397Z,4.27
2022-12-23T03:16:14.224Z,3.67
2022-12-23T03:21:15.831Z,4.20
2022-12-23T03:26:33.949Z,6.53
2022-12-23T03:31:29.598Z,4.97
2022-12-23T03:36:29.727Z,3.43
2022-12-23T03:41:46.203Z,6.87
2022-12-23T03:46:46.725Z,2.60
2022-12-23T03:51:51.060Z,4.93
2022-12-23T03:56:51.193Z,4.13
2022-12-23T04:01:51.797Z,3.73
2022-12-23T04:06:59.401Z,4.57
2022-12-23T04:11:51.768Z,3.20
2022-12-23T04:16:44.369Z,2.77
2022-12-23T04:21:35.925Z,3.53
2022-12-23T04:26:27.429Z,4.87
2022-12-23T04:31:21.047Z,5.47
2022-12-23T04:36:12.661Z,3.67
2022-12-23T04:41:04.360Z,2.27
2022-12-23T04:45:55.868Z,4.57
2022-12-23T04:50:47.354Z,6.50
2022-12-23T04:55:39.469Z,2.87
2022-12-23T05:00:37.129Z,3.00
2022-12-23T05:05:30.788Z,5.33
2022-12-23T05:10:22.269Z,5.63
2022-12-23T05:15:13.828Z,3.20
2022-12-23T05:20:05.825Z,9.33
2022-12-23T05:24:57.368Z,2.93
2022-12-23T05:29:48.911Z,4.00
2022-12-23T05:34:40.461Z,4.33
2022-12-23T05:39:32.031Z,5.30
2022-12-23T05:44:23.682Z,4.40
2022-12-23T05:49:15.375Z,4.20
2022-12-23T05:54:08.202Z,3.50
2022-12-23T05:58:59.707Z,3.67
2022-12-23T06:03:51.577Z,8.00
2022-12-23T06:08:43.235Z,4.33
2022-12-23T06:13:34.738Z,4.27
2022-12-23T06:18:26.298Z,3.23
2022-12-23T06:23:18.408Z,4.07
2022-12-23T06:28:10.049Z,2.00
2022-12-23T06:33:02.067Z,4.67
2022-12-23T06:37:53.621Z,9.77
2022-12-23T06:42:47.479Z,5.23
2022-12-23T06:47:39.144Z,3.10
2022-12-23T06:52:31.503Z,8.43
2022-12-23T06:57:23.023Z,3.87
2022-12-23T07:02:15.084Z,4.90
2022-12-23T07:07:06.853Z,4.03
2022-12-23T07:11:58.494Z,6.27
2022-12-23T07:16:51.428Z,4.33
2022-12-23T07:21:43.278Z,5.37
2022-12-23T07:26:34.787Z,3.73
2022-12-23T07:31:28.477Z,3.97
2022-12-23T07:36:20.129Z,3.37
2022-12-23T07:41:11.681Z,4.40
2022-12-23T07:46:08.287Z,4.33
2022-12-23T07:51:04.001Z,2.33
2022-12-23T07:55:56.765Z,4.83
2022-12-23T08:00:48.553Z,3.73
2022-12-23T08:05:40.119Z,2.07
2022-12-23T08:10:32.485Z,2.73
2022-12-23T08:15:24.781Z,4.93
2022-12-23T08:20:16.409Z,2.93
2022-12-23T08:25:08.359Z,3.97
2022-12-23T08:29:59.863Z,3.90
2022-12-23T08:34:51.450Z,2.87
2022-12-23T08:39:43.681Z,3.37
2022-12-23T08:44:35.361Z,3.17
2022-12-23T08:49:28.448Z,4.53
2022-12-23T08:54:20.551Z,3.67
2022-12-23T08:59:18.723Z,2.93
2022-12-23T09:04:11.000Z,2.20
2022-12-23T09:09:04.168Z,3.43
2022-12-23T09:13:57.861Z,3.17
2022-12-23T09:18:49.411Z,2.37
2022-12-23T09:23:41.660Z,0.97
2022-12-23T09:28:34.310Z,4.10
2022-12-23T09:33:26.007Z,4.93
2022-12-23T09:38:17.539Z,3.30
2022-12-23T09:43:36.144Z,1.83
2022-12-23T09:48:33.549Z,3.30
2022-12-23T09:53:35.872Z,2.10
2022-12-23T09:58:49.019Z,2.67
2022-12-23T10:03:54.514Z,4.20
2022-12-23T10:08:51.401Z,4.73
2022-12-23T10:13:53.429Z,4.10
2022-12-23T10:18:53.921Z,6.90
2022-12-23T10:23:51.216Z,5.00
2022-12-23T10:28:44.537Z,3.70
2022-12-23T10:33:50.569Z,5.90
2022-12-23T10:38:48.517Z,3.37
2022-12-23T10:44:03.242Z,6.37
2022-12-23T10:49:02.491Z,4.00
2022-12-23T10:54:13.039Z,4.13
2022-12-23T10:59:06.948Z,2.90
2022-12-23T11:04:26.029Z,4.23
2022-12-23T11:09:24.854Z,4.63
2022-12-23T11:14:40.670Z,3.27
2022-12-23T11:19:32.944Z,4.80
2022-12-23T11:24:28.591Z,4.27
2022-12-23T11:29:24.766Z,4.03
2022-12-23T11:34:38.782Z,3.10
2022-12-23T11:39:33.884Z,3.40
2022-12-23T11:44:32.305Z,5.57
2022-12-23T11:49:26.719Z,5.50
2022-12-23T11:54:20.539Z,5.43
2022-12-23T11:59:40.186Z,5.57
2022-12-23T12:04:35.606Z,3.93
2022-12-23T12:09:30.560Z,7.10
2022-12-23T12:14:41.695Z,6.80
2022-12-23T12:19:39.560Z,4.17
2022-12-23T12:24:44.083Z,5.13
2022-12-23T12:30:01.060Z,4.10
2022-12-23T12:35:06.418Z,4.13
2022-12-23T12:40:01.002Z,4.37
2022-12-23T12:45:02.284Z,4.60
2022-12-23T12:50:17.341Z,2.33
2022-12-23T12:55:17.499Z,3.03
2022-12-23T13:00:22.302Z,2.30
2022-12-23T13:05:33.947Z,4.10
2022-12-23T13:10:41.433Z,3.77
2022-12-23T13:15:44.846Z,4.60
2022-12-23T13:20:43.001Z,5.17
2022-12-23T13:26:00.528Z,3.13
2022-12-23T13:31:00.470Z,3.83
2022-12-23T13:35:59.780Z,3.57
2022-12-23T13:41:07.399Z,3.53
2022-12-23T13:46:06.028Z,2.80
2022-12-23T13:51:14.273Z,2.30
2022-12-23T13:56:22.379Z,1.67
2022-12-23T14:01:13.925Z,2.23
2022-12-23T14:06:23.423Z,2.10
2022-12-23T14:11:16.773Z,2.80
2022-12-23T14:16:17.921Z,3.07
2022-12-23T14:21:25.571Z,4.03
2022-12-23T14:26:46.162Z,3.87
2022-12-23T14:31:40.846Z,2.87
2022-12-23T14:36:33.732Z,3.53
2022-12-23T14:41:38.546Z,2.67
2022-12-23T14:46:36.207Z,2.57
2022-12-23T14:51:41.221Z,1.87
2022-12-23T14:56:39.468Z,2.43
2022-12-23T15:01:39.249Z,2.40
2022-12-23T15:06:33.579Z,2.50
2022-12-23T15:11:29.076Z,2.23
2022-12-23T15:16:35.460Z,2.37
2022-12-23T15:21:34.101Z,3.00
2022-12-23T15:26:30.297Z,5.87
2022-12-23T15:31:28.506Z,4.07
2022-12-23T15:36:42.992Z,3.60
2022-12-23T15:41:43.022Z,5.97
2022-12-23T15:46:40.167Z,4.13
2022-12-23T15:56:50.207Z,4.83
2022-12-23T16:01:42.041Z,2.90
2022-12-23T16:06:36.088Z,2.20
2022-12-23T16:11:57.984Z,1.60
2022-12-23T16:16:53.952Z,3.20
2022-12-23T16:21:46.378Z,3.17
2022-12-23T16:26:44.691Z,2.63
2022-12-23T16:31:37.428Z,1.80
2022-12-23T16:36:29.014Z,2.07
2022-12-23T16:41:21.544Z,3.40
2022-12-23T16:46:17.024Z,1.83
2022-12-23T16:51:14.706Z,2.17
2022-12-23T16:56:12.322Z,1.77
2022-12-23T17:01:04.919Z,4.30
2022-12-23T17:05:56.463Z,4.97
2022-12-23T17:10:48.119Z,8.43
2022-12-23T17:15:39.737Z,6.70
2022-12-23T17:20:32.081Z,8.27
2022-12-23T17:25:26.690Z,5.00
2022-12-23T17:30:21.770Z,7.20
2022-12-23T17:35:22.345Z,7.33
2022-12-23T17:40:14.972Z,9.30
2022-12-23T17:45:19.209Z,7.13
2022-12-23T17:50:11.227Z,8.80
2022-12-23T17:55:02.822Z,7.07
2022-12-23T17:59:55.012Z,9.13
2022-12-23T18:04:49.801Z,12.17
2022-12-23T18:09:41.376Z,9.77
2022-12-23T18:14:33.723Z,6.67
2022-12-23T18:19:25.640Z,11.80
2022-12-23T18:24:17.824Z,11.53
2022-12-23T18:29:09.513Z,12.27
2022-12-23T18:34:01.308Z,15.67
2022-12-23T18:38:53.629Z,13.63
2022-12-23T18:43:45.225Z,11.43
2022-12-23T18:48:39.757Z,12.70
2022-12-23T18:53:33.735Z,10.17
2022-12-23T18:58:25.499Z,16.97
2022-12-23T19:03:22.437Z,10.60
2022-12-23T19:08:14.119Z,12.10
2022-12-23T19:13:05.625Z,13.50
2022-12-23T19:17:57.361Z,9.67
2022-12-23T19:22:49.131Z,12.83
2022-12-23T19:27:42.138Z,8.57
2022-12-23T19:32:33.776Z,10.40
2022-12-23T19:37:25.391Z,9.60
2022-12-23T19:42:17.252Z,11.80
2022-12-23T19:47:08.868Z,11.07
2022-12-23T19:52:01.557Z,12.63
2022-12-23T19:56:53.263Z,14.27
2022-12-23T20:01:45.649Z,8.27
2022-12-23T20:06:38.363Z,10.63
2022-12-23T20:11:34.325Z,11.57
2022-12-23T20:16:26.797Z,15.77
2022-12-23T20:21:18.856Z,12.33
2022-12-23T20:26:12.389Z,12.30
2022-12-23T20:31:19.292Z,15.80
2022-12-23T20:36:13.511Z,10.50
2022-12-23T20:41:10.823Z,12.53
2022-12-23T20:46:06.904Z,9.60
2022-12-23T20:51:07.052Z,11.70
2022-12-23T20:56:09.576Z,10.90
2022-12-23T21:01:12.563Z,10.70
2022-12-23T21:06:05.353Z,9.00
2022-12-23T21:10:58.987Z,11.10
2022-12-23T21:15:50.837Z,9.07
2022-12-23T21:20:42.381Z,10.63
2022-12-23T21:25:34.146Z,8.27
2022-12-23T21:30:25.682Z,14.40
2022-12-23T21:35:17.327Z,10.43
2022-12-23T21:40:09.737Z,9.97
2022-12-23T21:45:01.464Z,11.07
2022-12-23T21:49:52.984Z,9.53
2022-12-23T21:54:44.578Z,9.80
2022-12-23T21:59:36.162Z,12.37
2022-12-23T22:04:27.792Z,11.47
2022-12-23T22:09:19.683Z,8.93
2022-12-23T22:14:14.011Z,13.73
2022-12-23T22:19:08.771Z,10.87
2022-12-23T22:24:01.387Z,12.10
2022-12-23T22:28:57.696Z,12.10
2022-12-23T22:33:49.297Z,13.70
2022-12-23T22:38:41.982Z,8.30
2022-12-23T22:43:33.723Z,10.60
2022-12-23T22:48:28.777Z,11.60
2022-12-23T22:53:24.847Z,9.57
2022-12-23T22:58:19.488Z,16.87
2022-12-23T23:03:11.038Z,11.97
2022-12-23T23:08:02.608Z,11.43
2022-12-23T23:12:54.120Z,12.93
2022-12-23T23:17:46.491Z,12.07
2022-12-23T23:22:38.129Z,15.63
2022-12-23T23:27:54.823Z,15.87
2022-12-23T23:32:46.435Z,17.20
2022-12-23T23:37:42.881Z,16.03
2022-12-23T23:42:34.434Z,12.87
2022-12-23T23:47:26.070Z,16.27
2022-12-23T23:52:17.814Z,12.73
2022-12-23T23:57:10.258Z,16.67
